Terminal Aerodrome Forecast
Issued by NWS

Home | Current Version | Previous Version | Text Only | Print | Product List | Glossary On
Versions: 1 2 3 4 5 6 7 8 9 10 11 12 13 14 15 16 17 18 19 20 21
000
FTUS43 KLSX 281140
TAFSUS
TAF
KSUS 281140Z 2812/2912 10010KT P6SM OVC090
     FM281400 12008KT P6SM VCSH OVC070
     FM281900 13011KT P6SM BKN035
     FM282100 14008KT P6SM VCTS OVC025CB
     FM290000 17004KT P6SM OVC025
     FM290600 VRB03KT 4SM -SHRA VCTS OVC010CB
     FM291000 13009KT 3SM RA OVC009=

USA.gov is the U.S. government's official web portal to all federal, state and local government web resources and services.